createdAt,value
2019-04-21T00:04:40.710Z,98533.45
2019-04-21T00:07:36.302Z,98540.63
2019-04-21T00:10:47.928Z,98539.80
2019-04-21T00:13:20.503Z,98539.12
2019-04-21T00:15:48.665Z,98528.71
2019-04-21T00:18:47.701Z,98529.77
2019-04-21T00:21:24.418Z,98528.77
2019-04-21T00:24:23.907Z,98528.77
2019-04-21T00:30:26.958Z,98528.69
2019-04-21T00:32:58.812Z,98532.22
2019-04-21T00:35:25.552Z,98524.36
2019-04-21T00:38:18.378Z,98517.91
2019-04-21T00:40:56.647Z,98519.22
2019-04-21T00:43:28.005Z,98519.30
2019-04-21T00:45:57.568Z,98520.31
2019-04-21T00:48:48.620Z,98515.66
2019-04-21T00:51:33.367Z,98517.27
2019-04-21T00:54:31.338Z,98513.87
2019-04-21T00:56:56.231Z,98512.77
2019-04-21T01:02:56.481Z,98513.13
2019-04-21T01:06:11.515Z,98510.38
2019-04-21T01:08:46.834Z,98507.12
2019-04-21T01:11:26.310Z,98510.00
2019-04-21T01:14:07.051Z,98510.66
2019-04-21T01:16:39.322Z,98500.41
2019-04-21T01:19:17.344Z,98501.66
2019-04-21T01:21:38.669Z,98502.27
2019-04-21T01:24:18.276Z,98498.95
2019-04-21T01:27:06.379Z,98503.62
2019-04-21T01:29:54.002Z,98497.36
2019-04-21T01:32:35.903Z,98496.22
2019-04-21T01:35:08.720Z,98494.49
2019-04-21T01:37:52.792Z,98494.66
2019-04-21T01:43:27.850Z,98491.83
2019-04-21T01:46:25.660Z,98487.77
2019-04-21T01:49:04.620Z,98493.50
2019-04-21T01:55:00.637Z,98483.11
2019-04-21T01:57:51.232Z,98487.98
2019-04-21T02:00:38.963Z,98481.42
2019-04-21T02:03:28.597Z,98481.87
2019-04-21T02:06:13.753Z,98475.92
2019-04-21T02:08:37.372Z,98476.37
2019-04-21T02:11:18.847Z,98476.92
2019-04-21T02:14:05.930Z,98471.91
2019-04-21T02:16:34.284Z,98469.37
2019-04-21T02:19:08.450Z,98471.47
2019-04-21T02:21:38.259Z,98469.16
2019-04-21T02:24:33.336Z,98465.55
2019-04-21T02:26:59.256Z,98460.56
2019-04-21T02:29:55.900Z,98456.98
2019-04-21T02:32:24.737Z,98459.53
2019-04-21T02:35:02.339Z,98457.60
2019-04-21T02:40:14.666Z,98454.52
2019-04-21T02:42:59.499Z,98445.70
2019-04-21T02:45:44.877Z,98441.64
2019-04-21T02:56:58.142Z,98437.27
2019-04-21T03:08:15.170Z,98406.44
2019-04-21T03:13:43.027Z,98402.45
2019-04-21T03:19:04.891Z,98403.52
2019-04-21T03:21:38.654Z,98397.31
2019-04-21T03:24:24.453Z,98391.09
2019-04-21T03:27:34.884Z,98388.79
2019-04-21T03:30:03.498Z,98382.36
2019-04-21T03:35:54.304Z,98378.18
2019-04-21T03:38:05.841Z,98375.89
2019-04-21T03:40:26.098Z,98376.10
2019-04-21T03:43:04.921Z,98373.20
2019-04-21T03:51:40.071Z,98368.23
2019-04-21T03:54:00.546Z,98369.84
2019-04-21T03:59:03.966Z,98371.97
2019-04-21T04:02:18.567Z,98376.06
2019-04-21T04:05:08.940Z,98371.13
2019-04-21T04:07:59.074Z,98378.81
2019-04-21T04:10:39.159Z,98378.70
2019-04-21T04:13:05.017Z,98377.05
2019-04-21T04:15:49.021Z,98379.69
2019-04-21T04:18:39.389Z,98377.47
2019-04-21T04:21:02.686Z,98375.44
2019-04-21T04:23:45.154Z,98376.97
2019-04-21T04:26:22.879Z,98377.03
2019-04-21T04:28:54.267Z,98378.98
2019-04-21T04:31:41.556Z,98372.33
2019-04-21T04:37:03.466Z,98378.62
2019-04-21T04:45:08.154Z,98374.00
2019-04-21T04:47:51.219Z,98376.92
2019-04-21T04:53:40.406Z,98375.35
2019-04-21T04:56:00.070Z,98378.62
2019-04-21T05:04:20.539Z,98373.43
2019-04-21T05:11:55.518Z,98372.41
2019-04-21T05:20:13.268Z,98371.84
2019-04-21T05:22:58.284Z,98366.28
2019-04-21T05:25:49.968Z,98365.28
2019-04-21T05:28:11.550Z,98366.22
2019-04-21T05:31:33.854Z,98361.39
2019-04-21T05:34:26.868Z,98363.66
2019-04-21T05:42:36.674Z,98362.11
2019-04-21T05:45:50.128Z,98356.25
2019-04-21T05:48:39.489Z,98359.70
2019-04-21T05:51:14.684Z,98362.17
2019-04-21T05:54:04.916Z,98361.90
2019-04-21T05:56:33.584Z,98357.41
2019-04-21T05:59:08.918Z,98364.42
2019-04-21T06:02:06.107Z,98365.56
2019-04-21T06:04:34.792Z,98360.65
2019-04-21T06:07:58.789Z,98364.13
2019-04-21T06:10:27.432Z,98362.86
2019-04-21T06:12:59.897Z,98364.30
2019-04-21T06:18:47.049Z,98363.23
2019-04-21T06:21:25.117Z,98353.75
2019-04-21T06:23:57.377Z,98365.13
2019-04-21T06:29:29.781Z,98355.25
2019-04-21T06:33:15.353Z,98351.38
2019-04-21T06:35:04.332Z,98346.59
2019-04-21T06:37:47.094Z,98342.61
2019-04-21T06:40:38.646Z,98336.74
2019-04-21T06:43:28.157Z,98345.62
2019-04-21T06:46:08.971Z,98338.62
2019-04-21T06:48:32.951Z,98339.98
2019-04-21T06:51:13.711Z,98334.84
2019-04-21T06:53:48.656Z,98336.16
2019-04-21T06:56:23.532Z,98333.13
2019-04-21T06:59:13.518Z,98329.72
2019-04-21T07:02:23.423Z,98328.08
2019-04-21T07:04:39.143Z,98328.08
2019-04-21T07:07:25.594Z,98331.94
2019-04-21T07:10:21.014Z,98336.52
2019-04-21T07:12:59.019Z,98339.18
2019-04-21T07:15:43.545Z,98333.72
2019-04-21T07:21:30.057Z,98308.47
2019-04-21T07:24:21.806Z,98316.02
2019-04-21T07:26:58.723Z,98327.80
2019-04-21T07:29:34.753Z,98324.19
2019-04-21T07:32:09.404Z,98315.02
2019-04-21T07:34:44.867Z,98329.94
2019-04-21T07:37:17.424Z,98332.81
2019-04-21T07:39:54.861Z,98335.38
2019-04-21T07:42:36.954Z,98337.56
2019-04-21T07:45:08.777Z,98330.62
2019-04-21T07:48:08.229Z,98331.31
2019-04-21T07:56:07.254Z,98332.31
2019-04-21T07:59:18.890Z,98328.06
2019-04-21T08:02:06.912Z,98329.33
2019-04-21T08:04:52.681Z,98325.22
2019-04-21T08:07:15.017Z,98318.13
2019-04-21T08:09:46.457Z,98315.44
2019-04-21T08:12:22.966Z,98323.47
2019-04-21T08:15:13.971Z,98316.18
2019-04-21T08:17:41.347Z,98315.22
2019-04-21T08:20:18.793Z,98302.76
2019-04-21T08:23:13.155Z,98308.30
2019-04-21T08:25:45.920Z,98283.65
2019-04-21T08:28:17.852Z,98303.58
2019-04-21T08:31:01.282Z,98301.80
2019-04-21T08:33:51.417Z,98297.45
2019-04-21T08:38:58.289Z,98293.69
2019-04-21T08:41:31.300Z,98298.71
2019-04-21T08:44:18.448Z,98294.66
2019-04-21T08:46:48.989Z,98289.61
2019-04-21T08:49:20.616Z,98290.50
2019-04-21T08:52:21.563Z,98288.38
2019-04-21T08:55:20.310Z,98280.55
2019-04-21T08:58:15.751Z,98276.20
2019-04-21T09:01:08.763Z,98273.86
2019-04-21T09:04:04.245Z,98272.50
2019-04-21T09:09:45.676Z,98276.47
2019-04-21T09:12:19.623Z,98272.70
2019-04-21T09:14:48.810Z,98270.83
2019-04-21T09:17:23.666Z,98265.78
2019-04-21T09:22:41.224Z,98260.94
2019-04-21T09:26:05.191Z,98251.73
2019-04-21T09:28:35.537Z,98252.36
2019-04-21T09:31:01.683Z,98252.16
2019-04-21T09:33:45.212Z,98244.00
2019-04-21T09:36:19.565Z,98246.38
2019-04-21T09:39:00.060Z,98242.06
2019-04-21T09:41:29.562Z,98242.89
2019-04-21T09:44:09.921Z,98233.84
2019-04-21T09:46:50.606Z,98229.62
2019-04-21T09:49:25.353Z,98228.19
2019-04-21T09:51:57.760Z,98214.19
2019-04-21T09:54:37.051Z,98211.34
2019-04-21T09:57:20.553Z,98211.22
2019-04-21T10:00:00.083Z,98204.66
2019-04-21T10:02:34.225Z,98199.42
2019-04-21T10:05:02.079Z,98202.23
2019-04-21T10:07:35.618Z,98188.06
2019-04-21T10:10:22.945Z,98194.95
2019-04-21T10:13:02.953Z,98181.48
2019-04-21T10:18:48.169Z,98182.92
2019-04-21T10:21:38.235Z,98169.94
2019-04-21T10:24:26.970Z,98165.41
2019-04-21T10:26:56.258Z,98163.38
2019-04-21T10:29:29.379Z,98158.59
2019-04-21T10:32:28.227Z,98162.37
2019-04-21T10:34:57.582Z,98150.94
2019-04-21T10:37:40.064Z,98154.34
2019-04-21T10:40:43.495Z,98143.50
2019-04-21T10:45:51.183Z,98130.25
2019-04-21T10:48:21.012Z,98142.53
2019-04-21T10:51:01.133Z,98128.42
2019-04-21T10:56:41.511Z,98126.47
2019-04-21T10:59:14.292Z,98123.39
2019-04-21T11:01:50.454Z,98108.66
2019-04-21T11:07:55.169Z,98103.25
2019-04-21T11:10:20.103Z,98105.86
2019-04-21T11:12:56.716Z,98102.87
2019-04-21T11:15:32.790Z,98098.67
2019-04-21T11:18:08.359Z,98086.45
2019-04-21T11:20:37.684Z,98081.59
2019-04-21T11:23:08.016Z,98080.17
2019-04-21T11:25:44.013Z,98077.04
2019-04-21T11:28:20.701Z,98080.27
2019-04-21T11:30:57.164Z,98075.47
2019-04-21T11:33:33.461Z,98067.03
2019-04-21T11:36:03.589Z,98072.67
2019-04-21T11:39:22.248Z,98067.30
2019-04-21T11:41:48.172Z,98071.75
2019-04-21T11:44:18.405Z,98065.33
2019-04-21T11:46:58.371Z,98054.27
2019-04-21T11:49:34.846Z,98056.70
2019-04-21T11:52:11.316Z,98057.07
2019-04-21T11:54:51.083Z,98051.00
2019-04-21T11:57:27.517Z,98046.80
2019-04-21T12:03:06.343Z,98047.81
2019-04-21T12:05:37.206Z,98046.98
2019-04-21T12:08:23.036Z,98044.36
2019-04-21T12:10:53.523Z,98045.55
2019-04-21T12:13:30.065Z,98027.48
2019-04-21T12:16:05.591Z,98032.14
2019-04-21T12:18:34.930Z,98026.05
2019-04-21T12:21:05.278Z,98018.99
2019-04-21T12:23:54.455Z,98020.10
2019-04-21T12:26:24.245Z,98026.31
2019-04-21T12:28:53.685Z,98023.00
2019-04-21T12:34:19.500Z,98026.23
2019-04-21T12:36:55.038Z,98010.07
2019-04-21T12:39:25.078Z,98010.68
2019-04-21T12:42:14.551Z,98004.31
2019-04-21T12:44:43.927Z,98001.30
2019-04-21T12:47:14.158Z,98001.68
2019-04-21T12:52:31.551Z,97989.38
2019-04-21T12:58:09.346Z,97987.84
2019-04-21T13:00:38.878Z,97979.90
2019-04-21T13:03:15.893Z,97976.45
2019-04-21T13:05:51.896Z,97969.86
2019-04-21T13:08:21.757Z,97971.70
2019-04-21T13:11:11.560Z,97960.22
2019-04-21T13:13:48.152Z,97956.91
2019-04-21T13:16:25.338Z,97953.17
2019-04-21T13:19:00.098Z,97950.98
2019-04-21T13:21:29.910Z,97955.06
2019-04-21T13:24:09.763Z,97951.97
2019-04-21T13:26:45.538Z,97942.70
2019-04-21T13:29:30.261Z,97941.09
2019-04-21T13:32:06.854Z,97938.72
2019-04-21T13:34:42.232Z,97930.60
2019-04-21T13:37:11.970Z,97934.77
2019-04-21T13:40:43.313Z,97928.64
2019-04-21T13:45:53.965Z,97921.91
2019-04-21T13:48:28.773Z,97921.91
2019-04-21T13:50:59.451Z,97911.05
2019-04-21T13:53:49.439Z,97901.19
2019-04-21T13:56:24.866Z,97903.86
2019-04-21T13:58:54.190Z,97899.39
2019-04-21T14:01:23.582Z,97890.48
2019-04-21T14:04:13.545Z,97891.04
2019-04-21T14:07:02.530Z,97885.94
2019-04-21T14:09:40.271Z,97883.21
2019-04-21T14:12:23.362Z,97868.73
2019-04-21T14:15:00.005Z,97871.72
2019-04-21T14:17:35.073Z,97869.91
2019-04-21T14:23:22.419Z,97859.63
2019-04-21T14:25:48.305Z,97868.02
2019-04-21T14:28:17.872Z,97861.98
2019-04-21T14:30:48.270Z,97859.77
2019-04-21T14:33:23.872Z,97856.98
2019-04-21T14:38:56.620Z,97856.87
2019-04-21T14:41:32.553Z,97854.77
2019-04-21T14:44:09.082Z,97845.23
2019-04-21T14:47:05.025Z,97842.42
2019-04-21T14:49:53.494Z,97844.90
2019-04-21T14:57:59.125Z,97833.09
2019-04-21T15:01:08.424Z,97831.63
2019-04-21T15:03:37.743Z,97837.88
2019-04-21T15:06:19.527Z,97836.41
2019-04-21T15:08:49.236Z,97830.86
2019-04-21T15:11:26.262Z,97824.01
2019-04-21T15:14:02.065Z,97822.09
2019-04-21T15:16:38.690Z,97819.88
2019-04-21T15:19:18.020Z,97823.33
2019-04-21T15:22:08.084Z,97818.89
2019-04-21T15:24:58.344Z,97810.66
2019-04-21T15:27:36.939Z,97812.30
2019-04-21T15:30:54.419Z,97811.63
2019-04-21T15:33:30.633Z,97806.77
2019-04-21T15:36:46.325Z,97809.88
2019-04-21T15:39:21.528Z,97808.84
2019-04-21T15:42:01.157Z,97799.35
2019-04-21T15:44:30.585Z,97803.89
2019-04-21T15:46:59.868Z,97800.05
2019-04-21T15:50:12.813Z,97801.02
2019-04-21T15:56:13.128Z,97797.16
2019-04-21T15:59:01.537Z,97788.38
2019-04-21T16:01:50.655Z,97790.33
2019-04-21T16:04:39.109Z,97782.09
2019-04-21T16:07:08.450Z,97778.29
2019-04-21T16:09:37.780Z,97775.02
2019-04-21T16:12:07.407Z,97771.10
2019-04-21T16:14:58.699Z,97775.50
2019-04-21T16:17:35.112Z,97766.50
2019-04-21T16:23:30.815Z,97773.00
2019-04-21T16:26:00.071Z,97763.68
2019-04-21T16:28:29.460Z,97760.14
2019-04-21T16:30:58.797Z,97762.45
2019-04-21T16:33:29.293Z,97758.60
2019-04-21T16:36:45.676Z,97757.06
2019-04-21T16:39:21.358Z,97750.59
2019-04-21T16:41:56.311Z,97753.21
2019-04-21T16:44:52.682Z,97746.45
2019-04-21T16:47:32.450Z,97746.55
2019-04-21T16:53:50.302Z,97745.41
2019-04-21T16:59:19.000Z,97741.23
2019-04-21T17:01:48.910Z,97743.75
2019-04-21T17:04:28.828Z,97741.12
2019-04-21T17:06:58.948Z,97739.17
2019-04-21T17:09:48.606Z,97734.53
2019-04-21T17:12:26.312Z,97738.50
2019-04-21T17:15:31.511Z,97735.56
2019-04-21T17:18:04.268Z,97731.09
2019-04-21T17:20:35.947Z,97732.39
2019-04-21T17:22:59.656Z,97731.57
2019-04-21T17:25:39.287Z,97732.73
2019-04-21T17:28:15.478Z,97728.34
2019-04-21T17:30:51.035Z,97728.59
2019-04-21T17:33:25.658Z,97726.58
2019-04-21T17:36:11.418Z,97731.80
2019-04-21T17:38:48.142Z,97728.59
2019-04-21T17:41:30.627Z,97726.00
2019-04-21T17:44:00.367Z,97724.98
2019-04-21T17:46:45.838Z,97727.40
2019-04-21T17:49:13.187Z,97723.59
2019-04-21T17:52:05.590Z,97722.98
2019-04-21T17:57:49.481Z,97726.38
2019-04-21T18:01:40.814Z,97735.75
2019-04-21T18:04:14.826Z,97735.05
2019-04-21T18:07:31.554Z,97735.20
2019-04-21T18:13:01.385Z,97731.68
2019-04-21T18:15:55.801Z,97740.99
2019-04-21T18:18:20.933Z,97738.09
2019-04-21T18:21:41.335Z,97739.86
2019-04-21T18:30:33.976Z,97739.59
2019-04-21T18:39:34.025Z,97729.69
2019-04-21T18:42:45.445Z,97731.54
2019-04-21T18:48:41.181Z,97733.08
2019-04-21T18:51:40.295Z,97733.16
2019-04-21T18:57:00.961Z,97735.17
2019-04-21T18:59:39.837Z,97738.75
2019-04-21T19:02:17.514Z,97744.86
2019-04-21T19:04:50.090Z,97742.58
2019-04-21T19:07:45.562Z,97743.17
2019-04-21T19:13:27.920Z,97745.39
2019-04-21T19:18:50.598Z,97739.57
2019-04-21T19:21:24.585Z,97741.23
2019-04-21T19:24:10.829Z,97743.80
2019-04-21T19:26:49.706Z,97736.55
2019-04-21T19:29:24.355Z,97740.73
2019-04-21T19:32:45.255Z,97735.11
2019-04-21T19:34:57.434Z,97735.66
2019-04-21T19:37:34.026Z,97738.53
2019-04-21T19:43:23.141Z,97739.44
2019-04-21T19:46:14.106Z,97733.97
2019-04-21T19:49:05.499Z,97740.05
2019-04-21T19:51:32.760Z,97740.67
2019-04-21T19:54:01.347Z,97731.90
2019-04-21T19:56:43.014Z,97736.45
2019-04-21T19:59:23.615Z,97730.79
2019-04-21T20:02:02.734Z,97730.47
2019-04-21T20:04:43.960Z,97730.88
2019-04-21T20:07:27.531Z,97727.95
2019-04-21T20:10:15.474Z,97723.97
2019-04-21T20:12:47.440Z,97728.53
2019-04-21T20:16:01.513Z,97725.56
2019-04-21T20:18:29.550Z,97722.79
2019-04-21T20:20:58.059Z,97721.02
2019-04-21T20:23:40.623Z,97716.34
2019-04-21T20:26:15.538Z,97720.92
2019-04-21T20:29:00.065Z,97714.80
2019-04-21T20:31:40.934Z,97716.72
2019-04-21T20:34:26.905Z,97719.48
2019-04-21T20:37:02.022Z,97717.82
2019-04-21T20:39:23.201Z,97715.55
2019-04-21T20:42:09.726Z,97715.41
2019-04-21T20:47:54.250Z,97716.11
2019-04-21T20:50:37.941Z,97707.86
2019-04-21T20:53:25.144Z,97714.20
2019-04-21T20:55:57.476Z,97705.11
2019-04-21T20:58:37.603Z,97706.34
2019-04-21T21:03:57.934Z,97703.98
2019-04-21T21:06:32.948Z,97703.30
2019-04-21T21:09:09.111Z,97701.58
2019-04-21T21:12:12.874Z,97702.64
2019-04-21T21:14:40.650Z,97698.92
2019-04-21T21:17:25.400Z,97705.33
2019-04-21T21:20:00.328Z,97700.95
2019-04-21T21:22:29.396Z,97705.39
2019-04-21T21:25:11.319Z,97698.97
2019-04-21T21:27:41.829Z,97697.44
2019-04-21T21:31:04.164Z,97692.40
2019-04-21T21:33:50.753Z,97684.37
2019-04-21T21:36:31.849Z,97685.22
2019-04-21T21:39:01.267Z,97682.02
2019-04-21T21:41:31.786Z,97688.36
2019-04-21T21:44:23.108Z,97686.02
2019-04-21T21:47:19.161Z,97679.27
2019-04-21T21:49:54.084Z,97679.27
2019-04-21T21:52:30.050Z,97684.17
2019-04-21T21:54:52.227Z,97669.97
2019-04-21T21:57:22.854Z,97669.97
2019-04-21T22:03:46.262Z,97684.03
2019-04-21T22:06:18.255Z,97684.03
2019-04-21T22:08:48.314Z,97684.05
2019-04-21T22:11:24.279Z,97666.77
2019-04-21T22:14:01.920Z,97680.31
2019-04-21T22:17:16.141Z,97671.66
2019-04-21T22:20:08.119Z,97671.22
2019-04-21T22:22:36.575Z,97671.22
2019-04-21T22:25:07.893Z,97655.42
2019-04-21T22:27:54.185Z,97666.55
2019-04-21T22:30:38.472Z,97667.57
2019-04-21T22:33:14.521Z,97667.57
2019-04-21T22:36:09.947Z,97664.81
2019-04-21T22:38:59.556Z,97664.61
2019-04-21T22:41:24.456Z,97664.61
2019-04-21T22:43:53.316Z,97669.02
2019-04-21T22:46:28.582Z,97669.02
2019-04-21T22:49:08.935Z,97667.03
2019-04-21T22:51:53.808Z,97661.63
2019-04-21T22:54:39.681Z,97659.11
2019-04-21T22:57:12.877Z,97659.11
2019-04-21T22:59:45.337Z,97653.11
2019-04-21T23:05:43.038Z,97658.18
2019-04-21T23:08:17.153Z,97648.95
2019-04-21T23:11:17.845Z,97651.27
2019-04-21T23:14:02.111Z,97651.27
2019-04-21T23:16:53.971Z,97632.34
2019-04-21T23:19:38.911Z,97632.34
2019-04-21T23:25:42.345Z,97633.95
2019-04-21T23:28:52.709Z,97629.47
2019-04-21T23:31:18.670Z,97629.47
2019-04-21T23:33:40.462Z,97635.89
2019-04-21T23:36:27.845Z,97616.05
2019-04-21T23:38:56.698Z,97616.05
2019-04-21T23:41:52.861Z,97625.36
2019-04-21T23:44:26.018Z,97625.36
2019-04-21T23:47:00.796Z,97626.41
2019-04-21T23:49:53.125Z,97605.31
2019-04-21T23:52:25.690Z,97626.04
2019-04-21T23:54:55.610Z,97614.98
2019-04-21T23:57:48.391Z,97614.98
